Aeroporto :
LOGIN :

Iscrizione | Disclaimer

   EN    FR    IT 

 










Sommario :    VFR   VFR Marginale   IFR   IFR Intensivo   IFR Molto Intensivo
Visibilità : 
Base nubi : 
>= 8 km
>= 3000ft
5 / 8 km
1000 / 3000 ft
1500m / 5 km
500 / 1000 ft
800 / 1500m
200 / 500 ft
< 800m
< 200 ft
Simboli :   Temporali  Nebbia  Neve Forte  Precipitazioni Forti  Vento > 20 kt
SIGMETs :   Varie  Temporali  Ghiacco  Turbolenza  Onda orograficha  Ceneri Vulcaniche






- Altitudine del aeroporto : 37 ft
- Codice IATA : HLY


EGOV - RAF Valley

ULTIMO METAR :
  • 251750Z AUTO 25010KT 9999 FEW064/// 15/10 Q1012

METARs OBSOLETI :
  • 251720Z AUTO 25011KT 9999 NCD 15/10 Q1012
  • 251650Z 26013KT CAVOK 15/10 Q1012 NOSIG RMK BLU BLU
  • 251620Z 25014KT 9999 FEW040 SCT065 BKN200 15/10 Q1011 NOSIG RMK BLU BLU
  • 251550Z 24011KT 9999 FEW037 SCT058 BKN200 15/11 Q1011 NOSIG RMK BLU BLU
  • 251520Z 22011KT 9999 FEW032 SCT037 BKN200 15/11 Q1011 NOSIG RMK BLU BLU

TAF TAF EGOV
Valido dal 25 a 15 ore il 25 a 19 ore UTC


251316Z 2515/2519 24014KT 9999 FEW020 SCT032



MetMap, La meteo Aeronautica in un colpo d'occhio ! - Copyright ORBIFLY Dicembre 2007 - Disclaimer

ORBIFLY MET'MAP TEAM :

Programmazione e sviluppo : Alexandra Zaïnal
Concezione : Baudouin d'Aumeries
Supporto tecnico e logistico : Manuel Goepfert
Aiuto : Marc-Olivier Méhu
Aiuto per la traduzione : Arnaldo La Scala

Contatto : metmap@orbifly.com




FONTI E CREDITI :

   NOAA